createdAt,value
2019-06-26T00:00:01.375Z,18.80
2019-06-26T00:01:01.349Z,18.73
2019-06-26T00:02:01.334Z,18.75
2019-06-26T00:03:01.311Z,18.67
2019-06-26T00:04:01.294Z,18.72
2019-06-26T00:05:01.269Z,18.70
2019-06-26T00:06:01.248Z,18.62
2019-06-26T00:07:01.283Z,18.50
2019-06-26T00:08:01.209Z,18.57
2019-06-26T00:09:01.189Z,18.54
2019-06-26T00:10:01.326Z,18.48
2019-06-26T00:11:01.145Z,18.48
2019-06-26T00:12:01.129Z,18.51
2019-06-26T00:13:01.105Z,18.51
2019-06-26T00:14:01.092Z,18.55
2019-06-26T00:15:01.064Z,18.55
2019-06-26T00:16:01.043Z,18.55
2019-06-26T00:17:01.091Z,18.51
2019-06-26T00:18:01.004Z,18.48
2019-06-26T00:19:00.983Z,18.47
2019-06-26T00:20:00.962Z,18.54
2019-06-26T00:21:00.940Z,18.50
2019-06-26T00:22:00.929Z,18.50
2019-06-26T00:23:00.900Z,18.52
2019-06-26T00:24:00.879Z,18.55
2019-06-26T00:25:00.860Z,18.52
2019-06-26T00:26:00.852Z,18.45
2019-06-26T00:27:00.818Z,18.52
2019-06-26T00:28:00.798Z,18.54
2019-06-26T00:29:00.782Z,18.47
2019-06-26T00:30:00.757Z,18.50
2019-06-26T00:31:00.737Z,18.41
2019-06-26T00:32:00.715Z,18.35
2019-06-26T00:33:00.697Z,18.30
2019-06-26T00:34:00.685Z,18.33
2019-06-26T00:35:00.669Z,18.35
2019-06-26T00:36:00.635Z,18.37
2019-06-26T00:37:00.614Z,18.33
2019-06-26T00:38:00.593Z,18.36
2019-06-26T00:39:00.574Z,18.35
2019-06-26T00:40:00.551Z,18.47
2019-06-26T00:41:00.531Z,18.52
2019-06-26T00:42:00.510Z,18.54
2019-06-26T00:43:00.491Z,18.42
2019-06-26T00:44:00.526Z,18.52
2019-06-26T00:45:00.454Z,18.45
2019-06-26T00:46:00.426Z,18.54
2019-06-26T00:47:00.405Z,18.57
2019-06-26T00:48:00.389Z,18.52
2019-06-26T00:49:00.365Z,18.50
2019-06-26T00:50:00.343Z,18.48
2019-06-26T00:51:00.324Z,18.51
2019-06-26T00:52:00.301Z,18.36
2019-06-26T00:53:00.281Z,18.36
2019-06-26T00:54:00.287Z,18.32
2019-06-26T00:55:00.238Z,18.32
2019-06-26T00:56:00.218Z,18.30
2019-06-26T00:57:00.203Z,18.29
2019-06-26T00:58:00.187Z,18.36
2019-06-26T00:59:00.163Z,18.35
2019-06-26T01:00:00.172Z,18.42
2019-06-26T01:01:00.133Z,18.41
2019-06-26T01:02:00.119Z,18.39
2019-06-26T01:03:00.082Z,18.37
2019-06-26T01:04:00.050Z,18.33
2019-06-26T01:05:00.033Z,18.25
2019-06-26T01:06:00.010Z,18.25
2019-06-26T01:06:59.989Z,18.26
2019-06-26T01:07:59.975Z,18.21
2019-06-26T01:08:59.981Z,18.30
2019-06-26T01:09:59.927Z,18.20
2019-06-26T01:10:59.904Z,18.10
2019-06-26T01:11:59.882Z,18.14
2019-06-26T01:12:59.882Z,18.11
2019-06-26T01:13:59.843Z,18.14
2019-06-26T01:14:59.820Z,18.10
2019-06-26T01:15:59.801Z,18.14
2019-06-26T01:16:59.779Z,18.12
2019-06-26T01:17:59.757Z,18.08
2019-06-26T01:18:59.736Z,18.03
2019-06-26T01:19:59.732Z,18.11
2019-06-26T01:20:59.696Z,17.99
2019-06-26T01:21:59.683Z,18.11
2019-06-26T01:22:59.654Z,18.14
2019-06-26T01:23:59.640Z,18.07
2019-06-26T01:24:59.611Z,17.99
2019-06-26T01:25:59.590Z,18.07
2019-06-26T01:26:59.569Z,18.00
2019-06-26T01:27:59.547Z,18.07
2019-06-26T01:28:59.542Z,18.12
2019-06-26T01:29:59.508Z,18.11
2019-06-26T01:30:59.485Z,18.11
2019-06-26T01:31:59.466Z,18.08
2019-06-26T01:32:59.446Z,18.05
2019-06-26T01:33:59.422Z,17.96
2019-06-26T01:34:59.402Z,17.93
2019-06-26T01:35:59.380Z,17.97
2019-06-26T01:36:59.360Z,17.99
2019-06-26T01:37:59.341Z,17.95
2019-06-26T01:38:59.318Z,18.00
2019-06-26T01:39:59.295Z,17.99
2019-06-26T01:40:59.275Z,17.99
2019-06-26T01:41:59.266Z,18.02
2019-06-26T01:42:59.235Z,18.03
2019-06-26T01:44:13.721Z,18.11
2019-06-26T01:44:59.193Z,18.12
2019-06-26T01:45:59.173Z,18.14
2019-06-26T01:46:59.154Z,18.07
2019-06-26T01:47:59.128Z,18.11
2019-06-26T01:48:59.108Z,18.02
2019-06-26T01:49:59.087Z,18.03
2019-06-26T01:50:59.066Z,17.89
2019-06-26T01:51:59.047Z,17.97
2019-06-26T01:52:59.023Z,17.81
2019-06-26T01:53:59.057Z,17.81
2019-06-26T01:54:58.981Z,17.78
2019-06-26T01:55:58.960Z,17.81
2019-06-26T01:56:58.940Z,17.81
2019-06-26T01:57:58.920Z,17.79
2019-06-26T01:58:58.900Z,17.77
2019-06-26T01:59:58.876Z,17.86
2019-06-26T02:00:58.870Z,17.78
2019-06-26T02:01:58.834Z,17.78
2019-06-26T02:02:58.818Z,17.92
2019-06-26T02:03:58.791Z,17.79
2019-06-26T02:04:58.771Z,17.84
2019-06-26T02:05:58.755Z,17.90
2019-06-26T02:06:58.727Z,17.86
2019-06-26T02:07:58.708Z,17.81
2019-06-26T02:08:58.686Z,17.81
2019-06-26T02:09:58.666Z,17.84
2019-06-26T02:10:58.643Z,17.81
2019-06-26T02:12:00.521Z,17.79
2019-06-26T02:12:58.602Z,17.79
2019-06-26T02:13:58.580Z,17.75
2019-06-26T02:14:58.561Z,17.72
2019-06-26T02:15:58.537Z,17.68
2019-06-26T02:16:58.518Z,17.70
2019-06-26T02:17:58.496Z,17.70
2019-06-26T02:18:58.476Z,17.64
2019-06-26T02:19:58.454Z,17.71
2019-06-26T02:20:58.445Z,17.66
2019-06-26T02:21:58.412Z,17.70
2019-06-26T02:22:58.390Z,17.68
2019-06-26T02:23:58.369Z,17.71
2019-06-26T02:24:58.351Z,17.75
2019-06-26T02:25:58.328Z,17.78
2019-06-26T02:26:58.305Z,17.82
2019-06-26T02:27:58.286Z,17.84
2019-06-26T02:28:58.264Z,17.84
2019-06-26T02:29:58.245Z,17.84
2019-06-26T02:30:58.225Z,17.86
2019-06-26T02:31:58.204Z,17.84
2019-06-26T02:32:58.180Z,17.89
2019-06-26T02:33:58.172Z,17.96
2019-06-26T02:34:58.137Z,17.99
2019-06-26T02:35:58.115Z,-40.00
2019-06-26T02:36:58.096Z,17.89
2019-06-26T02:37:58.075Z,17.87
2019-06-26T02:38:58.055Z,-40.00
2019-06-26T02:39:58.036Z,-40.00
2019-06-26T02:40:58.011Z,-40.00
2019-06-26T02:41:57.991Z,-40.00
2019-06-26T02:42:57.967Z,-40.00
2019-06-26T02:43:57.949Z,-40.00
2019-06-26T02:44:57.927Z,-40.00
2019-06-26T02:45:57.903Z,-40.00
2019-06-26T02:47:17.662Z,-40.00
2019-06-26T02:47:57.862Z,-40.00
2019-06-26T02:48:57.841Z,-40.00
2019-06-26T02:49:57.820Z,17.82
2019-06-26T02:50:57.798Z,17.81
2019-06-26T02:51:57.784Z,17.81
2019-06-26T02:52:57.756Z,17.78
2019-06-26T02:53:57.735Z,17.79
2019-06-26T02:54:57.714Z,17.78
2019-06-26T02:55:57.693Z,17.79
2019-06-26T02:56:57.676Z,17.72
2019-06-26T02:57:57.649Z,17.72
2019-06-26T02:58:57.630Z,17.72
2019-06-26T02:59:57.608Z,17.74
2019-06-26T03:00:57.585Z,17.79
2019-06-26T03:01:57.570Z,17.90
2019-06-26T03:02:57.544Z,17.95
2019-06-26T03:03:57.535Z,-40.00
2019-06-26T03:04:57.547Z,17.97
2019-06-26T03:05:57.485Z,17.97
2019-06-26T03:06:57.471Z,-40.00
2019-06-26T03:07:57.441Z,-40.00
2019-06-26T03:08:57.416Z,-40.00
2019-06-26T03:09:57.395Z,-40.00
2019-06-26T03:10:57.372Z,-40.00
2019-06-26T03:11:57.352Z,-40.00
2019-06-26T03:12:57.330Z,-40.00
2019-06-26T03:13:57.309Z,-40.00
2019-06-26T03:15:08.376Z,-40.00
2019-06-26T03:15:57.266Z,-40.00
2019-06-26T03:16:57.247Z,-40.00
2019-06-26T03:17:57.226Z,-40.00
2019-06-26T03:18:57.203Z,-40.00
2019-06-26T03:19:57.182Z,-40.00
2019-06-26T03:20:57.161Z,-40.00
2019-06-26T03:21:57.141Z,-40.00
2019-06-26T03:22:57.119Z,-40.00
2019-06-26T03:23:57.097Z,-40.00
2019-06-26T03:24:57.092Z,-40.00
2019-06-26T03:25:57.061Z,-40.00
2019-06-26T03:26:57.036Z,-40.00
2019-06-26T03:27:57.013Z,-40.00
2019-06-26T03:28:56.993Z,-40.00
2019-06-26T03:29:56.971Z,-40.00
2019-06-26T03:30:56.949Z,-40.00
2019-06-26T03:31:56.928Z,-40.00
2019-06-26T03:32:56.910Z,-40.00
2019-06-26T03:33:56.890Z,-40.00
2019-06-26T03:34:56.865Z,-40.00
2019-06-26T03:35:56.843Z,-40.00
2019-06-26T03:36:56.832Z,-40.00
2019-06-26T03:37:56.808Z,-40.00
2019-06-26T03:38:56.828Z,-40.00
2019-06-26T03:39:56.760Z,18.14
2019-06-26T03:40:56.739Z,-40.00
2019-06-26T03:41:56.718Z,-40.00
2019-06-26T03:42:56.736Z,-40.00
2019-06-26T03:43:56.676Z,-40.00
2019-06-26T03:44:56.662Z,-40.00
2019-06-26T03:45:56.635Z,18.30
2019-06-26T03:46:56.613Z,-40.00
2019-06-26T03:47:56.593Z,-40.00
2019-06-26T03:48:56.579Z,18.33
2019-06-26T03:49:56.558Z,-40.00
2019-06-26T03:50:56.529Z,-40.00
2019-06-26T03:51:56.509Z,-40.00
2019-06-26T03:52:56.487Z,-40.00
2019-06-26T03:53:56.466Z,-40.00
2019-06-26T03:54:56.446Z,-40.00
2019-06-26T03:55:56.423Z,-40.00
2019-06-26T03:56:56.404Z,-40.00
2019-06-26T03:57:56.383Z,-40.00
2019-06-26T03:58:56.362Z,-40.00
2019-06-26T03:59:56.339Z,-40.00
2019-06-26T04:00:56.318Z,18.66
2019-06-26T04:01:56.298Z,-40.00
2019-06-26T04:02:56.279Z,-40.00
2019-06-26T04:03:57.463Z,-40.00
2019-06-26T04:04:56.235Z,-40.00
2019-06-26T04:05:56.215Z,-40.00
2019-06-26T04:06:56.192Z,-40.00
2019-06-26T04:07:56.172Z,-40.00
2019-06-26T04:08:56.165Z,-40.00
2019-06-26T04:09:56.133Z,19.07
2019-06-26T04:10:56.110Z,19.19
2019-06-26T04:11:56.089Z,19.21
2019-06-26T04:12:56.087Z,-40.00
2019-06-26T04:13:56.049Z,-40.00
2019-06-26T04:14:56.028Z,19.43
2019-06-26T04:15:56.006Z,19.43
2019-06-26T04:16:55.989Z,19.47
2019-06-26T04:17:55.966Z,-40.00
2019-06-26T04:18:55.943Z,-40.00
2019-06-26T04:19:55.927Z,-40.00
2019-06-26T04:20:55.905Z,-40.00
2019-06-26T04:21:55.884Z,20.10
2019-06-26T04:22:55.863Z,20.13
2019-06-26T04:23:55.843Z,20.20
2019-06-26T04:24:55.823Z,20.31
2019-06-26T04:25:55.803Z,-40.00
2019-06-26T04:26:55.781Z,20.48
2019-06-26T04:27:55.763Z,20.39
2019-06-26T04:28:55.741Z,20.43
2019-06-26T04:29:55.721Z,-40.00
2019-06-26T04:30:55.700Z,-40.00
2019-06-26T04:31:55.731Z,-40.00
2019-06-26T04:32:55.662Z,-40.00
2019-06-26T04:33:55.641Z,-40.00
2019-06-26T04:34:55.621Z,-40.00
2019-06-26T04:35:55.602Z,-40.00
2019-06-26T04:36:55.583Z,-40.00
2019-06-26T04:37:55.567Z,-40.00
2019-06-26T04:38:55.540Z,-40.00
2019-06-26T04:39:55.523Z,-40.00
2019-06-26T04:40:55.501Z,-40.00
2019-06-26T04:41:55.484Z,-40.00
2019-06-26T04:42:55.464Z,-40.00
2019-06-26T04:43:55.488Z,-40.00
2019-06-26T04:44:55.424Z,-40.00
2019-06-26T04:45:58.578Z,-40.00
2019-06-26T04:46:55.385Z,-40.00
2019-06-26T04:47:55.365Z,-40.00
2019-06-26T04:48:55.349Z,-40.00
2019-06-26T04:49:55.326Z,-40.00
2019-06-26T04:50:55.314Z,-40.00
2019-06-26T04:51:55.287Z,-40.00
2019-06-26T04:52:55.269Z,-40.00
2019-06-26T04:53:55.805Z,-40.00
2019-06-26T04:54:55.229Z,-40.00
2019-06-26T04:55:55.211Z,-40.00
2019-06-26T04:56:55.193Z,-40.00
2019-06-26T04:57:55.177Z,-40.00
2019-06-26T04:58:55.152Z,-40.00
2019-06-26T04:59:55.134Z,-40.00
2019-06-26T05:00:55.119Z,-40.00
2019-06-26T05:01:55.129Z,-40.00
2019-06-26T05:02:55.077Z,22.49
2019-06-26T05:03:55.059Z,22.54
2019-06-26T05:04:55.041Z,22.51
2019-06-26T05:05:55.023Z,-40.00
2019-06-26T05:06:55.003Z,22.73
2019-06-26T05:07:54.985Z,22.73
2019-06-26T05:08:54.966Z,22.79
2019-06-26T05:09:54.949Z,-40.00
2019-06-26T05:10:54.929Z,-40.00
2019-06-26T05:11:54.918Z,-40.00
2019-06-26T05:12:54.894Z,23.19
2019-06-26T05:13:54.875Z,23.31
2019-06-26T05:14:54.857Z,23.42
2019-06-26T05:15:54.838Z,23.57
2019-06-26T05:16:54.820Z,-40.00
2019-06-26T05:17:54.801Z,23.75
2019-06-26T05:18:54.787Z,23.78
2019-06-26T05:19:54.765Z,24.10
2019-06-26T05:20:54.747Z,-40.00
2019-06-26T05:21:54.731Z,-40.00
2019-06-26T05:22:54.712Z,-40.00
2019-06-26T05:23:54.693Z,-40.00
2019-06-26T05:24:54.679Z,26.02
2019-06-26T05:25:54.659Z,-40.00
2019-06-26T05:26:54.642Z,-40.00
2019-06-26T05:27:54.630Z,27.29
2019-06-26T05:28:54.613Z,27.93
2019-06-26T05:29:54.648Z,28.54
2019-06-26T05:30:54.576Z,28.89
2019-06-26T05:31:54.560Z,-40.00
2019-06-26T05:32:54.549Z,29.70
2019-06-26T05:33:54.540Z,29.98
2019-06-26T05:34:54.552Z,30.11
2019-06-26T05:35:54.500Z,30.31
2019-06-26T05:36:54.485Z,30.45
2019-06-26T05:37:54.472Z,30.24
2019-06-26T05:38:54.456Z,30.35
2019-06-26T05:39:54.899Z,30.91
2019-06-26T05:40:54.428Z,30.53
2019-06-26T05:41:54.415Z,30.97
2019-06-26T05:42:54.400Z,30.86
2019-06-26T05:43:54.387Z,30.92
2019-06-26T05:44:54.373Z,30.86
2019-06-26T05:45:54.361Z,31.07
2019-06-26T05:46:54.351Z,31.38
2019-06-26T05:47:54.335Z,31.50
2019-06-26T05:48:54.321Z,31.84
2019-06-26T05:49:54.308Z,32.13
2019-06-26T05:50:54.297Z,32.35
2019-06-26T05:51:54.284Z,32.77
2019-06-26T05:52:54.271Z,32.57
2019-06-26T05:53:54.290Z,31.93
2019-06-26T05:54:54.247Z,31.96
2019-06-26T05:55:54.234Z,32.13
2019-06-26T05:56:54.228Z,32.35
2019-06-26T05:57:54.265Z,32.60
2019-06-26T05:58:54.201Z,32.75
2019-06-26T05:59:54.188Z,33.22
2019-06-26T06:00:54.176Z,33.51
2019-06-26T06:01:54.167Z,33.56
2019-06-26T06:02:54.335Z,33.87
2019-06-26T06:03:54.144Z,34.22
2019-06-26T06:04:54.133Z,34.66
2019-06-26T06:05:54.120Z,34.87
2019-06-26T06:06:54.109Z,34.92
2019-06-26T06:07:54.117Z,34.16
2019-06-26T06:08:54.087Z,34.54
2019-06-26T06:09:54.090Z,34.82
2019-06-26T06:10:57.184Z,35.03
2019-06-26T06:11:54.057Z,35.29
2019-06-26T06:12:54.047Z,35.14
2019-06-26T06:13:54.035Z,34.59
2019-06-26T06:14:54.027Z,34.89
2019-06-26T06:15:54.017Z,35.21
2019-06-26T06:16:54.006Z,35.52
2019-06-26T06:17:54.005Z,35.71
2019-06-26T06:18:53.986Z,35.74
2019-06-26T06:19:53.995Z,36.12
2019-06-26T06:20:53.967Z,35.81
2019-06-26T06:21:53.956Z,36.07
2019-06-26T06:22:53.985Z,35.87
2019-06-26T06:23:53.998Z,35.87
2019-06-26T06:24:53.935Z,36.00
2019-06-26T06:25:53.919Z,36.28
2019-06-26T06:26:53.908Z,35.96
2019-06-26T06:27:53.898Z,36.31
2019-06-26T06:28:53.895Z,36.43
2019-06-26T06:29:53.882Z,35.99
2019-06-26T06:30:53.871Z,36.16
2019-06-26T06:31:53.876Z,36.25
2019-06-26T06:32:53.853Z,36.47
2019-06-26T06:33:53.844Z,37.02
2019-06-26T06:34:53.839Z,36.87
2019-06-26T06:35:53.830Z,36.90
2019-06-26T06:36:53.819Z,37.28
2019-06-26T06:37:53.811Z,37.43
2019-06-26T06:38:53.801Z,37.24
2019-06-26T06:39:53.796Z,37.41
2019-06-26T06:40:53.790Z,37.63
2019-06-26T06:41:53.776Z,37.17
2019-06-26T06:42:53.768Z,37.05
2019-06-26T06:43:53.759Z,37.05
2019-06-26T06:44:53.750Z,36.81
2019-06-26T06:45:53.812Z,37.29
2019-06-26T06:47:03.392Z,36.80
2019-06-26T06:47:53.729Z,36.28
2019-06-26T06:48:53.723Z,36.76
2019-06-26T06:49:53.723Z,36.95
2019-06-26T06:50:53.702Z,37.25
2019-06-26T06:51:53.693Z,37.03
2019-06-26T06:52:53.691Z,37.13
2019-06-26T06:53:53.682Z,37.37
2019-06-26T06:54:53.762Z,37.76
2019-06-26T06:55:53.661Z,38.09
2019-06-26T06:56:53.688Z,38.34
2019-06-26T06:57:53.650Z,38.60
2019-06-26T06:58:53.638Z,38.18
2019-06-26T06:59:53.631Z,38.20
2019-06-26T07:00:53.675Z,38.30
2019-06-26T07:01:53.615Z,38.78
2019-06-26T07:02:53.610Z,38.88
2019-06-26T07:03:53.603Z,38.87
2019-06-26T07:04:53.592Z,39.22
2019-06-26T07:05:53.586Z,38.99
2019-06-26T07:06:53.578Z,39.36
2019-06-26T07:07:53.569Z,39.40
2019-06-26T07:08:53.581Z,39.29
2019-06-26T07:09:53.555Z,39.04
2019-06-26T07:10:53.548Z,39.06
2019-06-26T07:11:53.541Z,38.54
2019-06-26T07:12:53.534Z,38.13
2019-06-26T07:13:53.528Z,37.98
2019-06-26T07:14:53.522Z,37.41
2019-06-26T07:15:53.514Z,36.76
2019-06-26T07:16:53.505Z,36.99
2019-06-26T07:17:53.498Z,37.59
2019-06-26T07:18:53.491Z,37.74
2019-06-26T07:19:53.485Z,37.41
2019-06-26T07:20:53.479Z,37.37
2019-06-26T07:21:53.472Z,37.57
2019-06-26T07:22:53.463Z,37.41
2019-06-26T07:23:53.469Z,37.10
2019-06-26T07:24:53.456Z,37.49
2019-06-26T07:25:53.442Z,37.46
2019-06-26T07:26:53.435Z,37.63
2019-06-26T07:27:53.441Z,37.43
2019-06-26T07:28:53.421Z,37.49
2019-06-26T07:29:53.418Z,38.00
2019-06-26T07:30:53.406Z,38.20
2019-06-26T07:31:53.401Z,38.28
2019-06-26T07:32:53.392Z,38.35
2019-06-26T07:33:55.748Z,38.78
2019-06-26T07:34:53.377Z,39.28
2019-06-26T07:35:53.373Z,39.62
2019-06-26T07:36:53.377Z,39.89
2019-06-26T07:37:53.365Z,40.23
2019-06-26T07:38:53.361Z,40.50
2019-06-26T07:39:57.590Z,40.32
2019-06-26T07:40:53.337Z,40.45
2019-06-26T07:41:53.330Z,40.04
2019-06-26T07:42:53.329Z,40.29
2019-06-26T07:43:53.319Z,40.13
2019-06-26T07:44:53.311Z,39.48
2019-06-26T07:45:53.305Z,38.66
2019-06-26T07:46:53.297Z,38.52
2019-06-26T07:47:53.291Z,38.22
2019-06-26T07:48:53.285Z,38.19
2019-06-26T07:49:53.278Z,38.22
2019-06-26T07:50:53.272Z,38.25
2019-06-26T07:51:53.269Z,37.98
2019-06-26T07:52:53.285Z,37.82
2019-06-26T07:53:53.252Z,37.40
2019-06-26T07:54:53.249Z,37.36
2019-06-26T07:55:53.238Z,37.29
2019-06-26T07:56:53.231Z,37.31
2019-06-26T07:57:53.227Z,36.99
2019-06-26T07:58:53.218Z,37.44
2019-06-26T07:59:53.212Z,37.75
2019-06-26T08:00:53.251Z,38.01
2019-06-26T08:01:53.201Z,37.59
2019-06-26T08:02:53.191Z,37.81
2019-06-26T08:03:53.185Z,36.91
2019-06-26T08:04:53.181Z,37.02
2019-06-26T08:05:53.171Z,36.22
2019-06-26T08:06:53.167Z,36.50
2019-06-26T08:07:53.155Z,36.47
2019-06-26T08:08:53.170Z,35.94
2019-06-26T08:09:53.149Z,36.46
2019-06-26T08:10:53.142Z,36.83
2019-06-26T08:11:53.130Z,37.32
2019-06-26T08:12:53.122Z,37.72
2019-06-26T08:13:53.118Z,38.18
2019-06-26T08:14:53.105Z,38.42
2019-06-26T08:15:53.099Z,38.53
2019-06-26T08:16:53.092Z,38.93
2019-06-26T08:18:00.569Z,39.07
2019-06-26T08:18:53.077Z,38.83
2019-06-26T08:19:53.069Z,39.03
2019-06-26T08:21:10.854Z,38.65
2019-06-26T08:21:53.062Z,38.63
2019-06-26T08:22:53.049Z,38.81
2019-06-26T08:23:53.096Z,38.86
2019-06-26T08:24:53.128Z,39.25
2019-06-26T08:25:53.032Z,39.25
2019-06-26T08:26:53.036Z,39.69
2019-06-26T08:27:53.020Z,39.85
2019-06-26T08:28:53.009Z,39.75
2019-06-26T08:29:53.012Z,39.94
2019-06-26T08:30:52.993Z,40.01
2019-06-26T08:31:52.986Z,39.77
2019-06-26T08:32:52.980Z,39.79
2019-06-26T08:33:52.972Z,39.35
2019-06-26T08:34:52.965Z,39.54
2019-06-26T08:35:52.962Z,39.73
2019-06-26T08:36:52.954Z,40.15
2019-06-26T08:38:09.001Z,40.62
2019-06-26T08:38:52.937Z,40.60
2019-06-26T08:39:52.931Z,40.15
2019-06-26T08:40:52.923Z,39.57
2019-06-26T08:41:52.918Z,39.55
2019-06-26T08:42:52.947Z,39.35
2019-06-26T08:43:52.903Z,39.81
2019-06-26T08:44:52.905Z,39.50
2019-06-26T08:45:52.893Z,39.33
2019-06-26T08:46:52.885Z,39.36
2019-06-26T08:47:52.879Z,39.50
2019-06-26T08:48:52.873Z,39.55
2019-06-26T08:49:52.871Z,39.82
2019-06-26T08:50:52.864Z,40.04
2019-06-26T08:51:52.854Z,38.93
2019-06-26T08:52:52.847Z,38.32
2019-06-26T08:53:52.840Z,38.41
2019-06-26T08:54:52.837Z,38.49
2019-06-26T08:55:52.828Z,38.88
2019-06-26T08:56:52.918Z,39.25
2019-06-26T08:57:52.818Z,39.45
2019-06-26T08:58:52.811Z,39.75
2019-06-26T08:59:52.801Z,39.86
2019-06-26T09:00:52.798Z,39.66
2019-06-26T09:01:52.790Z,38.63
2019-06-26T09:02:52.782Z,39.04
2019-06-26T09:03:52.774Z,39.03
2019-06-26T09:04:52.771Z,38.87
2019-06-26T09:05:52.761Z,38.96
2019-06-26T09:06:52.753Z,39.30
2019-06-26T09:07:52.779Z,39.44
2019-06-26T09:08:52.740Z,39.07
2019-06-26T09:09:52.735Z,39.26
2019-06-26T09:10:52.730Z,39.13
2019-06-26T09:11:52.720Z,39.28
2019-06-26T09:12:52.715Z,39.52
2019-06-26T09:13:52.709Z,39.55
2019-06-26T09:14:52.699Z,39.35
2019-06-26T09:15:52.692Z,39.79
2019-06-26T09:16:52.699Z,39.98
2019-06-26T09:17:52.679Z,40.13
2019-06-26T09:18:52.671Z,40.26
2019-06-26T09:19:52.685Z,40.07
2019-06-26T09:20:52.660Z,40.18
2019-06-26T09:21:52.661Z,39.89
2019-06-26T09:22:52.643Z,39.97
2019-06-26T09:23:52.638Z,39.70
2019-06-26T09:24:52.650Z,39.45
2019-06-26T09:25:52.624Z,39.36
2019-06-26T09:26:52.615Z,39.26
2019-06-26T09:27:52.612Z,39.22
2019-06-26T09:28:52.603Z,39.01
2019-06-26T09:29:52.596Z,38.96
2019-06-26T09:30:52.588Z,38.75
2019-06-26T09:31:52.581Z,38.65
2019-06-26T09:32:52.573Z,38.74
2019-06-26T09:33:52.582Z,38.86
2019-06-26T09:34:52.563Z,39.07
2019-06-26T09:35:52.552Z,38.59
2019-06-26T09:36:52.543Z,38.69
2019-06-26T09:37:52.537Z,39.03
2019-06-26T09:38:52.531Z,39.28
2019-06-26T09:39:52.528Z,39.41
2019-06-26T09:40:52.514Z,39.51
2019-06-26T09:41:52.508Z,39.66
2019-06-26T09:42:52.501Z,39.72
2019-06-26T09:43:52.494Z,39.30
2019-06-26T09:44:52.577Z,39.48
2019-06-26T09:45:52.483Z,39.29
2019-06-26T09:46:52.476Z,39.48
2019-06-26T09:47:52.468Z,39.25
2019-06-26T09:48:53.592Z,38.69
2019-06-26T09:49:52.449Z,38.81
2019-06-26T09:50:52.442Z,38.99
2019-06-26T09:51:52.466Z,38.98
2019-06-26T09:52:52.446Z,39.23
2019-06-26T09:53:52.457Z,39.10
2019-06-26T09:54:52.411Z,39.18
2019-06-26T09:55:52.420Z,39.29
2019-06-26T09:56:52.401Z,39.55
2019-06-26T09:57:52.391Z,39.73
2019-06-26T09:58:52.382Z,40.01
2019-06-26T09:59:52.374Z,40.10
2019-06-26T10:00:52.378Z,39.78
2019-06-26T10:01:52.362Z,40.03
2019-06-26T10:02:52.354Z,39.72
2019-06-26T10:03:52.346Z,39.36
2019-06-26T10:04:52.339Z,38.76
2019-06-26T10:05:52.333Z,38.93
2019-06-26T10:06:52.333Z,38.88
2019-06-26T10:07:52.318Z,39.44
2019-06-26T10:08:54.322Z,39.67
2019-06-26T10:09:52.307Z,39.97
2019-06-26T10:10:52.309Z,40.53
2019-06-26T10:11:52.307Z,40.54
2019-06-26T10:12:52.287Z,40.25
2019-06-26T10:13:52.277Z,40.12
2019-06-26T10:14:52.273Z,39.63
2019-06-26T10:15:52.262Z,39.64
2019-06-26T10:16:52.264Z,39.54
2019-06-26T10:17:52.251Z,39.73
2019-06-26T10:19:08.654Z,40.03
2019-06-26T10:19:54.089Z,39.78
2019-06-26T10:20:52.228Z,39.96
2019-06-26T10:21:52.222Z,39.55
2019-06-26T10:22:52.213Z,38.68
2019-06-26T10:23:52.207Z,38.50
2019-06-26T10:24:52.198Z,38.72
2019-06-26T10:25:52.192Z,38.25
2019-06-26T10:26:52.185Z,38.03
2019-06-26T10:27:52.184Z,37.70
2019-06-26T10:28:52.493Z,37.34
2019-06-26T10:29:52.163Z,36.91
2019-06-26T10:30:52.164Z,36.84
2019-06-26T10:31:52.237Z,37.13
2019-06-26T10:32:52.139Z,37.44
2019-06-26T10:33:52.130Z,37.25
2019-06-26T10:34:52.200Z,37.36
2019-06-26T10:35:52.114Z,37.94
2019-06-26T10:36:52.113Z,38.03
2019-06-26T10:37:52.096Z,37.57
2019-06-26T10:38:52.089Z,37.40
2019-06-26T10:39:52.080Z,37.57
2019-06-26T10:40:52.072Z,37.88
2019-06-26T10:41:54.865Z,38.38
2019-06-26T10:42:52.055Z,38.56
2019-06-26T10:43:52.253Z,38.66
2019-06-26T10:44:52.037Z,38.88
2019-06-26T10:45:52.030Z,38.75
2019-06-26T10:46:52.023Z,38.96
2019-06-26T10:47:52.047Z,37.94
2019-06-26T10:48:52.038Z,38.00
2019-06-26T10:49:51.998Z,37.98
2019-06-26T10:50:58.109Z,38.00
2019-06-26T10:51:52.011Z,37.60
2019-06-26T10:52:51.973Z,38.18
2019-06-26T10:53:51.963Z,38.69
2019-06-26T10:54:51.955Z,39.03
2019-06-26T10:55:51.946Z,39.62
2019-06-26T10:56:51.939Z,39.38
2019-06-26T10:57:51.930Z,39.35
2019-06-26T10:58:51.926Z,39.88
2019-06-26T10:59:55.545Z,39.97
2019-06-26T11:00:51.908Z,39.85
2019-06-26T11:01:51.901Z,39.67
2019-06-26T11:02:51.890Z,39.59
2019-06-26T11:03:51.917Z,39.40
2019-06-26T11:04:51.879Z,39.28
2019-06-26T11:05:51.901Z,39.30
2019-06-26T11:06:51.861Z,39.41
2019-06-26T11:07:51.851Z,39.44
2019-06-26T11:08:51.843Z,39.50
2019-06-26T11:09:51.836Z,39.50
2019-06-26T11:10:51.831Z,39.69
2019-06-26T11:11:51.821Z,39.75
2019-06-26T11:12:51.817Z,39.85
2019-06-26T11:13:51.805Z,39.67
2019-06-26T11:14:51.797Z,40.04
2019-06-26T11:15:51.789Z,40.01
2019-06-26T11:16:51.795Z,39.96
2019-06-26T11:17:51.785Z,39.66
2019-06-26T11:18:51.967Z,39.75
2019-06-26T11:19:55.145Z,39.38
2019-06-26T11:20:51.752Z,39.07
2019-06-26T11:21:51.777Z,39.10
2019-06-26T11:22:51.759Z,38.69
2019-06-26T11:23:51.730Z,38.63
2019-06-26T11:24:51.721Z,38.66
2019-06-26T11:25:51.714Z,39.06
2019-06-26T11:26:51.710Z,39.18
2019-06-26T11:27:51.701Z,39.54
2019-06-26T11:28:51.693Z,39.97
2019-06-26T11:29:51.702Z,40.42
2019-06-26T11:30:51.682Z,40.15
2019-06-26T11:31:51.671Z,39.84
2019-06-26T11:32:51.664Z,39.32
2019-06-26T11:33:51.665Z,39.36
2019-06-26T11:34:51.648Z,39.22
2019-06-26T11:35:51.642Z,39.41
2019-06-26T11:37:03.220Z,39.72
2019-06-26T11:37:51.629Z,39.54
2019-06-26T11:38:51.618Z,39.26
2019-06-26T11:39:51.750Z,39.43
2019-06-26T11:40:51.603Z,39.59
2019-06-26T11:41:51.597Z,39.48
2019-06-26T11:42:51.587Z,39.77
2019-06-26T11:43:51.580Z,39.79
2019-06-26T11:44:51.573Z,39.35
2019-06-26T11:45:51.565Z,39.48
2019-06-26T11:46:51.557Z,39.66
2019-06-26T11:47:51.553Z,39.82
2019-06-26T11:48:51.543Z,39.79
2019-06-26T11:49:59.843Z,39.64
2019-06-26T11:50:51.528Z,39.10
2019-06-26T11:51:51.519Z,39.07
2019-06-26T11:52:51.511Z,39.25
2019-06-26T11:53:51.508Z,39.67
2019-06-26T11:55:01.758Z,39.88
2019-06-26T11:55:51.492Z,39.82
2019-06-26T11:56:51.480Z,39.91
2019-06-26T11:57:51.477Z,39.69
2019-06-26T11:58:51.464Z,39.07
2019-06-26T11:59:51.504Z,39.38
2019-06-26T12:00:51.449Z,39.45
2019-06-26T12:01:51.495Z,39.28
2019-06-26T12:02:51.435Z,39.41
2019-06-26T12:03:51.424Z,39.64
2019-06-26T12:04:51.421Z,39.62
2019-06-26T12:05:51.409Z,39.10
2019-06-26T12:06:51.403Z,39.07
2019-06-26T12:07:51.393Z,39.52
2019-06-26T12:08:51.386Z,39.67
2019-06-26T12:09:51.459Z,39.72
2019-06-26T12:10:51.373Z,39.89
2019-06-26T12:11:51.361Z,39.79
2019-06-26T12:12:51.354Z,40.13
2019-06-26T12:13:51.347Z,40.16
2019-06-26T12:14:51.338Z,40.53
2019-06-26T12:15:51.332Z,40.76
2019-06-26T12:16:51.324Z,40.51
2019-06-26T12:17:51.315Z,40.01
2019-06-26T12:18:51.307Z,39.92
2019-06-26T12:19:51.298Z,39.88
2019-06-26T12:20:51.289Z,39.73
2019-06-26T12:21:51.283Z,39.62
2019-06-26T12:22:51.281Z,39.51
2019-06-26T12:23:51.268Z,39.38
2019-06-26T12:24:51.261Z,39.45
2019-06-26T12:25:51.252Z,39.44
2019-06-26T12:26:51.243Z,39.67
2019-06-26T12:27:51.236Z,39.78
2019-06-26T12:28:51.228Z,39.69
2019-06-26T12:29:51.223Z,39.41
2019-06-26T12:30:51.219Z,39.62
2019-06-26T12:31:51.204Z,39.26
2019-06-26T12:33:02.094Z,39.52
2019-06-26T12:33:51.289Z,39.84
2019-06-26T12:34:51.181Z,40.27
2019-06-26T12:35:51.172Z,40.15
2019-06-26T12:36:51.162Z,39.91
2019-06-26T12:37:51.265Z,40.31
2019-06-26T12:38:51.190Z,40.22
2019-06-26T12:39:51.140Z,39.98
2019-06-26T12:40:51.132Z,39.98
2019-06-26T12:41:51.124Z,40.13
2019-06-26T12:42:54.522Z,40.60
2019-06-26T12:43:51.111Z,40.61
2019-06-26T12:44:51.101Z,40.51
2019-06-26T12:45:51.092Z,40.64
2019-06-26T12:46:51.086Z,40.69
2019-06-26T12:47:51.076Z,40.53